Time;durP1;ratioP1;P1;durP2;ratioP2;P2;SDS_P1;SDS_P2;PMS_P1;PMS_P2;Temp;Humidity;BMP_temperature;BMP_pressure;BME280_temperature;BME280_humidity;BME280_pressure;Samples;Min_cycle;Max_cycle;Signal;HPM_P1;HPM_P2
2023/08/25 00:00:30;;;;;;;14.15;3.92;;;;;;;23.62;65.12;92981.09;2068128;69;20199;-78
2023/08/25 00:02:56;;;;;;;18.83;4.30;;;;;;;23.41;67.52;92982.16;2067490;69;20148;-80
2023/08/25 00:05:21;;;;;;;19.52;4.18;;;;;;;23.31;68.63;92988.44;2068147;69;20148;-78
2023/08/25 00:07:47;;;;;;;20.38;4.53;;;;;;;23.25;67.56;92974.00;2067844;69;20226;-78
2023/08/25 00:10:13;;;;;;;17.20;4.97;;;;;;;23.58;65.42;92976.00;2067482;69;20853;-77
2023/08/25 00:12:39;;;;;;;22.63;4.60;;;;;;;23.39;66.17;92959.88;2067901;69;20210;-77
2023/08/25 00:15:05;;;;;;;14.93;4.00;;;;;;;23.39;67.84;92979.25;2064777;69;20164;-77
2023/08/25 00:17:32;;;;;;;19.00;4.40;;;;;;;23.34;68.00;92982.06;2067928;69;20210;-77
2023/08/25 00:19:58;;;;;;;21.20;5.22;;;;;;;23.24;68.11;92976.13;2067759;69;20535;-77
2023/08/25 00:22:24;;;;;;;21.40;4.80;;;;;;;22.36;71.49;92990.88;2068267;69;20139;-79
2023/08/25 00:24:55;;;;;;;13.95;4.53;;;;;;;23.01;68.97;92991.50;2067984;69;20144;-79
2023/08/25 00:31:07;;;;;;;18.75;4.80;;;;;;;22.89;68.48;92989.13;2068023;69;20171;-75
2023/08/25 00:33:33;;;;;;;15.88;4.90;;;;;;;23.04;68.57;92999.44;2067977;69;20145;-76
2023/08/25 00:35:58;;;;;;;13.90;4.22;;;;;;;23.19;68.02;93002.59;2068001;69;20152;-78
2023/08/25 00:38:28;;;;;;;14.27;4.65;;;;;;;23.24;67.62;93007.00;2068306;69;20142;-77
2023/08/25 00:40:55;;;;;;;17.98;4.32;;;;;;;23.14;68.47;93010.41;2067974;69;20136;-78
2023/08/25 00:43:20;;;;;;;20.55;4.60;;;;;;;23.15;68.19;93020.47;2064842;69;20152;-76
2023/08/25 00:45:46;;;;;;;16.80;4.75;;;;;;;23.16;67.66;93033.41;2064543;69;20161;-79
2023/08/25 00:48:13;;;;;;;16.00;4.70;;;;;;;23.13;68.10;93034.78;2061642;69;20148;-80
2023/08/25 00:54:28;;;;;;;16.30;4.60;;;;;;;22.95;68.96;93049.50;2068266;69;20158;-80
2023/08/25 00:56:56;;;;;;;18.25;4.63;;;;;;;23.06;67.60;93047.59;2067256;69;20155;-80
2023/08/25 00:59:22;;;;;;;15.80;4.32;;;;;;;22.98;68.27;93047.41;2068040;69;20152;-80
2023/08/25 01:01:49;;;;;;;14.00;4.45;;;;;;;22.98;68.14;93045.28;2066949;69;20133;-81
2023/08/25 01:04:15;;;;;;;19.90;4.72;;;;;;;22.75;69.67;93040.47;2067922;69;20634;-81
2023/08/25 01:06:41;;;;;;;21.58;4.43;;;;;;;22.99;66.90;93043.13;2067927;69;20132;-79
2023/08/25 01:09:08;;;;;;;16.80;4.57;;;;;;;22.96;68.53;93041.66;2067456;69;20153;-80
2023/08/25 01:11:41;;;;;;;15.85;4.18;;;;;;;22.94;68.20;93050.19;2067863;69;20240;-80
2023/08/25 01:14:26;;;;;;;17.35;4.30;;;;;;;22.90;68.65;93058.72;2067907;69;20251;-80
2023/08/25 01:17:25;;;;;;;20.60;4.88;;;;;;;22.82;69.20;93062.88;2064560;69;20151;-81
2023/08/25 01:20:00;;;;;;;18.05;4.35;;;;;;;22.84;68.63;93065.03;2063827;69;20132;-80
2023/08/25 01:26:15;;;;;;;20.75;4.55;;;;;;;22.86;67.86;93065.06;2067930;69;20226;-80
2023/08/25 01:28:41;;;;;;;16.55;4.30;;;;;;;22.79;68.39;93063.50;2067949;69;20254;-81
2023/08/25 01:31:08;;;;;;;14.57;4.20;;;;;;;22.71;68.52;93075.53;2068028;69;20480;-80
2023/08/25 01:33:34;;;;;;;15.45;4.25;;;;;;;22.76;68.63;93071.34;2068029;69;20618;-81
2023/08/25 01:36:25;;;;;;;19.60;5.30;;;;;;;22.83;68.93;93084.41;2067892;69;20176;-81
2023/08/25 01:39:04;;;;;;;14.82;4.68;;;;;;;22.79;68.73;93080.72;2068215;69;20144;-81
2023/08/25 01:45:23;;;;;;;17.50;4.68;;;;;;;22.66;69.88;93079.00;2068502;69;20167;-81
2023/08/25 01:48:29;;;;;;;15.88;4.60;;;;;;;22.74;70.02;93084.94;2068854;69;20147;-80
2023/08/25 01:50:56;;;;;;;16.27;4.45;;;;;;;22.66;69.92;93104.84;2067806;69;20145;-80
2023/08/25 01:53:22;;;;;;;16.02;4.18;;;;;;;22.65;69.85;93095.50;2065204;69;20171;-80
2023/08/25 01:55:47;;;;;;;17.38;4.55;;;;;;;22.09;72.08;93087.03;2068472;69;20203;-81
2023/08/25 02:02:02;;;;;;;13.75;4.35;;;;;;;22.36;70.69;93065.47;2068360;69;20558;-80
2023/08/25 02:04:28;;;;;;;17.33;4.68;;;;;;;22.26;70.91;93053.72;2064975;69;20630;-81
2023/08/25 02:10:41;;;;;;;17.25;4.28;;;;;;;22.52;67.10;93042.13;2066941;69;20148;-80
2023/08/25 02:13:08;;;;;;;14.73;4.43;;;;;;;22.46;69.32;93028.38;2068795;69;20244;-80
2023/08/25 02:15:34;;;;;;;15.18;4.78;;;;;;;21.95;70.15;93023.63;2068114;69;20133;-80
2023/08/25 02:18:02;;;;;;;21.38;4.70;;;;;;;22.07;69.46;93024.63;2065328;69;20152;-81
2023/08/25 02:20:31;;;;;;;18.85;4.43;;;;;;;22.39;68.81;93006.72;2065204;69;20230;-81
2023/08/25 02:22:59;;;;;;;14.88;4.18;;;;;;;22.14;67.13;92991.13;2068565;69;20183;-81
2023/08/25 02:29:13;;;;;;;17.52;4.68;;;;;;;22.17;67.58;92975.41;2068025;69;20128;-79
2023/08/25 02:31:39;;;;;;;16.50;4.75;;;;;;;22.33;66.75;92969.31;2064890;69;20148;-81
2023/08/25 02:34:04;;;;;;;21.05;4.65;;;;;;;22.43;66.89;92960.19;2067828;69;20207;-81
2023/08/25 02:40:19;;;;;;;16.42;4.55;;;;;;;22.13;69.47;92975.34;2068572;69;20253;-80
2023/08/25 02:42:46;;;;;;;19.67;4.45;;;;;;;22.14;69.00;92978.94;2062073;69;20212;-80
2023/08/25 02:45:11;;;;;;;15.60;4.65;;;;;;;22.24;68.44;92971.25;2064693;69;20145;-80
2023/08/25 02:47:38;;;;;;;14.68;4.60;;;;;;;22.22;69.38;92971.22;2068519;69;20152;-79
2023/08/25 02:50:04;;;;;;;23.85;4.68;;;;;;;22.13;68.82;92978.19;2067764;69;20159;-81
2023/08/25 02:52:31;;;;;;;17.58;5.35;;;;;;;22.06;69.94;92990.91;2067854;69;20156;-79
2023/08/25 02:54:57;;;;;;;17.80;5.00;;;;;;;21.94;70.46;93002.09;2068303;69;20231;-79
2023/08/25 02:57:25;;;;;;;15.43;4.10;;;;;;;22.21;68.03;93006.31;2068082;69;20166;-80
2023/08/25 02:59:51;;;;;;;17.63;4.68;;;;;;;22.04;68.86;93005.19;2065060;69;20145;-80
2023/08/25 03:02:17;;;;;;;19.38;4.43;;;;;;;21.80;71.25;93020.41;2068313;69;20216;-80
2023/08/25 03:04:43;;;;;;;17.08;5.32;;;;;;;21.46;72.86;93037.47;2065057;69;20596;-80
2023/08/25 03:07:09;;;;;;;11.95;4.80;;;;;;;21.73;72.19;93043.88;2067210;69;20240;-80
2023/08/25 03:09:34;;;;;;;20.42;5.25;;;;;;;21.86;70.92;93048.50;2061686;69;20202;-80
2023/08/25 03:12:00;;;;;;;17.33;5.05;;;;;;;21.93;70.70;93058.69;2064426;69;20148;-80
2023/08/25 03:14:26;;;;;;;15.10;4.50;;;;;;;22.07;70.05;93064.03;2064282;69;20168;-80
2023/08/25 03:16:53;;;;;;;17.23;5.05;;;;;;;22.11;68.36;93064.13;2065008;69;20152;-80
2023/08/25 03:19:19;;;;;;;17.10;4.60;;;;;;;22.11;69.72;93054.78;2064709;69;20152;-80
2023/08/25 03:21:44;;;;;;;19.35;4.78;;;;;;;21.95;70.19;93044.41;2064372;69;20153;-80
2023/08/25 03:24:10;;;;;;;16.23;5.25;;;;;;;21.73;71.18;93043.88;2064619;69;20165;-81
2023/08/25 03:26:39;;;;;;;21.33;4.97;;;;;;;21.78;71.45;93037.53;2064158;69;20168;-80
2023/08/25 03:29:06;;;;;;;14.18;5.30;;;;;;;21.87;71.15;93044.22;2064430;69;20136;-79
2023/08/25 03:31:36;;;;;;;16.33;4.75;;;;;;;21.87;71.07;93034.88;2064056;69;20181;-80
2023/08/25 03:34:02;;;;;;;11.55;4.30;;;;;;;21.88;70.26;93037.06;2064283;69;20593;-80
2023/08/25 03:36:31;;;;;;;17.00;4.78;;;;;;;21.93;71.10;93043.63;2064375;69;20141;-80
2023/08/25 03:38:57;;;;;;;17.50;4.82;;;;;;;21.82;71.70;93037.66;2064990;69;20581;-80
2023/08/25 03:41:22;;;;;;;19.90;5.38;;;;;;;21.75;71.88;93030.31;2067017;69;20145;-80
2023/08/25 03:43:48;;;;;;;15.40;4.35;;;;;;;21.94;70.10;93027.88;2066912;69;20169;-80
2023/08/25 03:46:13;;;;;;;15.50;5.20;;;;;;;21.88;71.25;93037.06;2067103;69;20797;-80
2023/08/25 03:48:39;;;;;;;15.68;4.93;;;;;;;21.97;69.58;93047.31;2065082;69;20136;-80
2023/08/25 03:51:05;;;;;;;16.58;4.97;;;;;;;21.97;71.09;93055.19;2064981;69;20145;-80
2023/08/25 03:53:30;;;;;;;17.92;4.70;;;;;;;21.94;71.42;93051.53;2064463;69;20543;-79
2023/08/25 03:55:56;;;;;;;20.65;5.20;;;;;;;22.03;71.34;93058.19;2065870;69;20600;-79
2023/08/25 03:58:22;;;;;;;21.10;4.65;;;;;;;22.08;70.79;93057.63;2067338;69;20563;-79
2023/08/25 04:00:58;;;;;;;14.68;4.88;;;;;;;22.05;71.80;93064.00;2067334;69;20690;-80
2023/08/25 04:03:24;;;;;;;16.58;4.80;;;;;;;21.94;72.39;93068.00;2067212;69;20281;-79
2023/08/25 04:05:50;;;;;;;19.08;5.03;;;;;;;22.02;71.29;93068.94;2064882;69;20566;-79
2023/08/25 04:08:15;;;;;;;14.13;4.93;;;;;;;22.12;70.60;93076.34;2064887;69;20145;-79
2023/08/25 04:10:41;;;;;;;14.77;4.82;;;;;;;22.08;71.00;93071.97;2066878;69;20159;-79
2023/08/25 04:13:09;;;;;;;18.15;4.95;;;;;;;22.08;71.39;93079.81;2067052;69;20153;-80
2023/08/25 04:15:39;;;;;;;16.88;4.68;;;;;;;22.03;71.89;93084.72;2066829;69;20148;-80
2023/08/25 04:18:06;;;;;;;17.45;4.63;;;;;;;22.04;70.70;93082.59;2064323;69;20153;-80
2023/08/25 04:20:32;;;;;;;17.80;4.72;;;;;;;22.06;71.89;93063.28;2067222;69;20145;-79
2023/08/25 04:23:02;;;;;;;17.23;4.38;;;;;;;22.18;70.06;93062.91;2064931;69;20167;-80
2023/08/25 04:25:32;;;;;;;18.58;4.95;;;;;;;22.10;72.64;93064.81;2067132;69;20232;-80
2023/08/25 04:28:00;;;;;;;16.98;4.60;;;;;;;22.07;71.82;93064.75;2061356;69;20172;-81
2023/08/25 04:30:25;;;;;;;17.25;4.82;;;;;;;22.01;71.68;93053.16;2063971;69;20179;-80
2023/08/25 04:32:54;;;;;;;15.30;4.53;;;;;;;22.06;71.28;93048.97;2067060;69;20168;-80
2023/08/25 04:35:20;;;;;;;13.02;4.63;;;;;;;21.93;72.50;93052.94;2064277;69;20168;-80
2023/08/25 04:37:50;;;;;;;14.13;4.95;;;;;;;22.00;72.00;93042.38;2066881;69;20155;-80
2023/08/25 04:44:04;;;;;;;14.07;4.57;;;;;;;22.03;72.57;93013.06;2064977;69;20168;-80
2023/08/25 04:46:30;;;;;;;16.42;4.70;;;;;;;21.99;71.86;93009.38;2064252;69;20145;-81
2023/08/25 04:48:57;;;;;;;17.75;4.55;;;;;;;21.86;72.79;92996.91;2064340;69;20535;-81
2023/08/25 04:51:23;;;;;;;17.73;4.90;;;;;;;21.92;71.90;92999.91;2064310;69;20215;-80
2023/08/25 04:53:49;;;;;;;15.77;5.13;;;;;;;21.88;72.67;92996.94;2064774;69;20570;-79
2023/08/25 04:56:17;;;;;;;15.63;4.68;;;;;;;21.93;72.54;92994.91;2064224;69;20152;-80
2023/08/25 04:58:43;;;;;;;17.35;5.30;;;;;;;21.85;72.78;92992.56;2064282;69;20137;-81
2023/08/25 05:01:08;;;;;;;19.17;5.03;;;;;;;21.86;71.23;92987.59;2064209;69;20168;-80
2023/08/25 05:03:36;;;;;;;18.38;4.85;;;;;;;21.86;71.14;92999.78;2064233;69;20149;-80
2023/08/25 05:06:03;;;;;;;13.68;4.65;;;;;;;21.82;70.65;93005.41;2066583;69;20208;-80
2023/08/25 05:08:40;;;;;;;18.58;5.50;;;;;;;21.67;72.44;93007.22;2063999;69;20145;-80
2023/08/25 05:11:07;;;;;;;18.13;5.55;;;;;;;21.73;72.00;93003.75;2067250;69;20592;-79
2023/08/25 05:13:32;;;;;;;18.42;5.95;;;;;;;21.75;71.75;93009.53;2064812;69;20152;-80
2023/08/25 05:15:58;;;;;;;19.83;5.40;;;;;;;21.69;71.69;93001.50;2064848;69;20171;-80
2023/08/25 05:18:44;;;;;;;15.15;5.10;;;;;;;21.56;72.28;92991.16;2067770;69;20496;-81
2023/08/25 05:21:12;;;;;;;14.65;4.95;;;;;;;21.87;70.80;92991.91;2068137;69;20145;-79
2023/08/25 05:23:42;;;;;;;18.67;5.20;;;;;;;22.06;70.78;92991.63;2065277;69;20233;-80
2023/08/25 05:26:09;;;;;;;18.13;5.30;;;;;;;22.14;70.42;92981.78;2065252;69;20183;-80
2023/08/25 05:28:35;;;;;;;17.98;5.10;;;;;;;22.11;71.19;92986.00;2065059;69;20736;-81
2023/08/25 05:31:02;;;;;;;17.35;4.70;;;;;;;22.16;71.72;92981.81;2065169;69;20167;-80
2023/08/25 05:33:50;;;;;;;18.60;5.53;;;;;;;22.05;72.37;92972.97;2068506;69;20227;-79
2023/08/25 05:36:33;;;;;;;15.00;5.20;;;;;;;21.95;73.34;92969.88;2064773;69;20152;-81
2023/08/25 05:38:59;;;;;;;18.30;5.20;;;;;;;21.96;72.50;92962.75;2068613;69;20262;-83
2023/08/25 05:41:25;;;;;;;17.00;5.28;;;;;;;22.00;71.86;92959.25;2065123;69;20160;-80
2023/08/25 05:47:38;;;;;;;15.43;5.32;;;;;;;21.99;71.63;92941.31;2068569;69;20709;-81
2023/08/25 05:50:04;;;;;;;12.27;4.78;;;;;;;21.93;72.30;92926.84;2065246;69;20180;-81
2023/08/25 05:52:30;;;;;;;15.90;5.32;;;;;;;21.97;72.10;92914.75;2065320;69;20155;-82
2023/08/25 05:54:56;;;;;;;16.88;5.68;;;;;;;21.92;72.18;92908.19;2064896;69;20210;-80
2023/08/25 05:57:22;;;;;;;20.92;5.57;;;;;;;21.98;71.41;92910.47;2068016;69;20140;-80
2023/08/25 05:59:47;;;;;;;14.50;5.30;;;;;;;21.92;71.73;92905.31;2068561;69;20243;-80
2023/08/25 06:02:14;;;;;;;14.15;4.90;;;;;;;21.88;72.24;92907.38;2068316;69;20658;-80
2023/08/25 06:04:41;;;;;;;17.33;5.03;;;;;;;21.83;72.53;92913.00;2067940;69;20684;-81
2023/08/25 06:07:07;;;;;;;14.57;4.90;;;;;;;21.88;71.92;92910.25;2068352;69;20626;-80
2023/08/25 06:09:32;;;;;;;17.60;4.95;;;;;;;21.92;71.69;92913.94;2068488;69;20145;-80
2023/08/25 06:11:59;;;;;;;17.52;4.70;;;;;;;21.96;72.19;92913.28;2068425;69;20234;-81
2023/08/25 06:14:25;;;;;;;22.20;5.78;;;;;;;22.00;70.60;92913.38;2068406;69;20172;-80
2023/08/25 06:16:51;;;;;;;17.95;5.35;;;;;;;22.02;70.17;92913.41;2065133;69;20512;-80
2023/08/25 06:19:16;;;;;;;20.25;5.53;;;;;;;22.02;71.73;92919.88;2068816;69;20144;-80
2023/08/25 06:21:42;;;;;;;14.95;5.55;;;;;;;22.01;72.48;92914.84;2068402;69;20164;-80
2023/08/25 06:24:07;;;;;;;16.83;5.40;;;;;;;21.90;72.44;92919.63;2068390;69;20301;-80
2023/08/25 06:26:33;;;;;;;13.63;5.20;;;;;;;21.88;72.68;92919.56;2068455;69;20143;-80
2023/08/25 06:28:59;;;;;;;16.38;4.88;;;;;;;22.08;70.99;92917.16;2068569;69;20132;-82
2023/08/25 06:31:29;;;;;;;22.52;6.35;;;;;;;22.14;71.53;92905.09;2068468;69;20148;-81
2023/08/25 06:33:55;;;;;;;18.33;6.82;;;;;;;22.12;69.75;92904.31;2068842;69;20184;-80
2023/08/25 06:36:21;;;;;;;22.50;6.85;;;;;;;22.04;71.70;92897.00;2068261;69;20533;-81
2023/08/25 06:38:46;;;;;;;19.80;6.25;;;;;;;22.01;70.91;92895.50;2068493;69;20165;-79
2023/08/25 06:41:12;;;;;;;17.35;5.50;;;;;;;22.31;71.09;92901.16;2068336;69;20149;-78
2023/08/25 06:43:37;;;;;;;17.67;6.05;;;;;;;22.60;72.24;92895.25;2068932;69;20212;-82
2023/08/25 06:46:03;;;;;;;17.30;5.72;;;;;;;22.71;70.56;92891.16;2068612;69;20493;-81
2023/08/25 06:48:29;;;;;;;13.50;5.32;;;;;;;22.88;71.41;92886.44;2068528;69;20153;-80
2023/08/25 06:50:54;;;;;;;14.68;5.25;;;;;;;23.30;68.24;92890.06;2068370;69;20277;-80
2023/08/25 06:53:20;;;;;;;15.52;5.57;;;;;;;23.33;68.86;92879.34;2068766;69;20144;-81
2023/08/25 06:55:45;;;;;;;20.95;5.55;;;;;;;22.86;67.13;92878.50;2068552;69;20469;-82
2023/08/25 06:58:11;;;;;;;19.77;6.07;;;;;;;22.74;67.72;92870.44;2068476;69;20175;-80
2023/08/25 07:00:36;;;;;;;15.35;4.97;;;;;;;23.75;67.27;92867.81;2068565;69;20262;-81
2023/08/25 07:03:03;;;;;;;15.15;4.72;;;;;;;24.20;66.03;92861.94;2068517;69;20140;-81
2023/08/25 07:05:29;;;;;;;14.50;4.88;;;;;;;24.42;62.54;92862.25;2068758;69;20161;-81
2023/08/25 07:07:54;;;;;;;17.63;5.88;;;;;;;24.67;60.76;92859.63;2068516;69;20145;-82
2023/08/25 07:10:20;;;;;;;19.92;5.43;;;;;;;24.24;61.52;92862.00;2068504;69;20241;-84
2023/08/25 07:12:47;;;;;;;19.92;5.53;;;;;;;24.22;61.95;92854.03;2068434;69;20532;-84
2023/08/25 07:15:13;;;;;;;17.23;5.22;;;;;;;24.19;62.17;92864.09;2067952;69;20655;-84
2023/08/25 07:17:39;;;;;;;13.95;5.15;;;;;;;24.27;61.12;92852.66;2068354;69;20286;-84
2023/08/25 07:20:06;;;;;;;17.38;4.93;;;;;;;24.35;62.44;92840.53;2068755;69;20619;-84
2023/08/25 07:22:32;;;;;;;14.40;5.15;;;;;;;24.87;59.07;92845.44;2068662;69;20895;-82
2023/08/25 07:24:58;;;;;;;12.60;4.80;;;;;;;25.04;61.92;92837.66;2068270;69;20240;-83
2023/08/25 07:27:24;;;;;;;15.80;4.45;;;;;;;25.29;59.07;92838.63;2068094;69;20132;-83
2023/08/25 07:29:53;;;;;;;14.20;4.70;;;;;;;25.34;59.71;92837.25;2067787;69;20228;-85
2023/08/25 07:32:19;;;;;;;14.43;4.32;;;;;;;25.43;60.75;92835.88;2068476;69;20170;-83
2023/08/25 07:34:45;;;;;;;17.77;4.65;;;;;;;25.57;60.61;92838.84;2068364;69;20523;-83
2023/08/25 07:37:11;;;;;;;14.95;4.60;;;;;;;25.52;59.86;92840.25;2065268;69;20144;-84
2023/08/25 07:39:39;;;;;;;11.55;4.20;;;;;;;25.72;58.48;92836.78;2068458;69;20160;-82
2023/08/25 07:42:05;;;;;;;11.68;4.20;;;;;;;25.87;58.53;92826.06;2068337;69;20540;-82
2023/08/25 07:44:30;;;;;;;9.95;4.55;;;;;;;26.31;56.27;92836.41;2068459;69;20129;-82
2023/08/25 07:46:57;;;;;;;13.95;4.93;;;;;;;26.25;55.87;92828.44;2068160;69;20547;-83
2023/08/25 07:49:24;;;;;;;14.35;4.57;;;;;;;26.58;54.31;92820.66;2068557;69;20137;-84
2023/08/25 07:51:50;;;;;;;12.05;4.75;;;;;;;26.68;53.63;92822.13;2068300;69;20183;-82
2023/08/25 07:54:16;;;;;;;12.13;4.53;;;;;;;27.05;54.56;92823.63;2068327;69;20168;-83
2023/08/25 07:56:41;;;;;;;14.65;4.93;;;;;;;26.64;54.44;92807.66;2064630;69;20263;-84
2023/08/25 07:59:07;;;;;;;13.52;4.45;;;;;;;27.15;50.22;92799.81;2068135;69;20210;-83
2023/08/25 08:01:33;;;;;;;14.38;4.35;;;;;;;27.51;51.99;92804.13;2068458;69;20579;-82
2023/08/25 08:03:58;;;;;;;20.20;4.60;;;;;;;27.82;52.05;92793.28;2068472;69;20189;-81
2023/08/25 08:06:24;;;;;;;17.77;4.80;;;;;;;27.95;53.09;92800.47;2068585;69;20681;-82
2023/08/25 08:08:50;;;;;;;11.65;4.72;;;;;;;28.30;51.66;92797.44;2068232;69;20148;-81
2023/08/25 08:11:16;;;;;;;15.90;5.22;;;;;;;28.43;52.44;92793.09;2068017;69;20152;-83
2023/08/25 08:13:45;;;;;;;16.45;4.00;;;;;;;28.84;50.86;92784.88;2068465;69;20140;-84
2023/08/25 08:16:11;;;;;;;15.10;4.43;;;;;;;28.80;49.85;92782.00;2068281;69;20145;-84
2023/08/25 08:18:37;;;;;;;16.15;4.47;;;;;;;29.30;48.76;92776.63;2068221;69;20527;-84
2023/08/25 08:21:04;;;;;;;15.68;5.10;;;;;;;29.34;47.92;92767.88;2068491;69;20591;-83
2023/08/25 08:23:31;;;;;;;16.48;4.68;;;;;;;29.21;44.50;92766.53;2068375;69;20145;-84
2023/08/25 08:25:58;;;;;;;13.02;4.13;;;;;;;29.23;46.04;92760.72;2067773;69;20141;-85
2023/08/25 08:28:23;;;;;;;13.02;4.20;;;;;;;29.62;45.52;92767.66;2067917;69;20156;-84
2023/08/25 08:30:49;;;;;;;15.98;4.18;;;;;;;29.89;44.41;92764.47;2067579;69;20284;-85
2023/08/25 08:33:15;;;;;;;15.82;3.95;;;;;;;30.14;43.18;92764.94;2067408;69;20235;-86
2023/08/25 08:35:41;;;;;;;15.45;4.40;;;;;;;30.12;42.91;92756.97;2068040;69;20152;-84
2023/08/25 08:38:07;;;;;;;17.17;4.10;;;;;;;30.57;42.67;92761.53;2064620;69;20141;-85
2023/08/25 08:40:35;;;;;;;13.80;4.10;;;;;;;30.71;44.04;92761.34;2067548;69;20147;-82
2023/08/25 08:43:02;;;;;;;18.67;4.97;;;;;;;30.89;41.23;92751.66;2061778;69;20179;-82
2023/08/25 08:45:34;;;;;;;11.07;4.13;;;;;;;31.16;41.59;92754.88;2068299;69;20222;-83
2023/08/25 08:48:04;;;;;;;11.40;3.78;;;;;;;31.61;41.24;92751.22;2068230;69;20141;-84
2023/08/25 08:50:31;;;;;;;11.27;4.05;;;;;;;31.01;41.91;92745.63;2064960;69;20172;-83
2023/08/25 08:52:57;;;;;;;11.18;3.97;;;;;;;31.29;41.21;92749.59;2068008;69;20149;-83
2023/08/25 08:55:23;;;;;;;15.88;4.28;;;;;;;31.89;40.11;92750.03;2068748;69;20140;-85
2023/08/25 08:57:50;;;;;;;10.38;3.85;;;;;;;31.43;40.44;92749.38;2068545;69;20609;-84
2023/08/25 09:00:18;;;;;;;10.55;4.10;;;;;;;32.29;38.56;92741.97;2068234;69;20221;-84
2023/08/25 09:02:56;;;;;;;12.40;4.10;;;;;;;32.70;38.53;92732.38;2068854;69;20151;-84
2023/08/25 09:05:27;;;;;;;15.02;4.05;;;;;;;32.43;37.27;92735.88;2068474;69;20136;-82
2023/08/25 09:07:59;;;;;;;18.08;3.78;;;;;;;32.35;36.10;92728.00;2069057;69;20223;-84
2023/08/25 09:10:25;;;;;;;13.68;4.15;;;;;;;33.16;36.07;92712.41;2068647;69;20180;-84
2023/08/25 09:12:51;;;;;;;11.65;3.85;;;;;;;33.16;35.40;92713.13;2069151;69;20180;-88
2023/08/25 09:15:28;;;;;;;10.18;3.33;;;;;;;33.54;34.64;92714.41;2068853;69;20156;-85
2023/08/25 09:18:08;;;;;;;14.77;3.67;;;;;;;32.82;36.04;92715.34;2068766;69;20136;-86
2023/08/25 09:20:38;;;;;;;12.68;4.05;;;;;;;32.59;35.09;92697.66;2068768;69;20631;-86
2023/08/25 09:23:04;;;;;;;12.45;3.70;;;;;;;33.33;35.32;92690.81;2068796;69;20184;-85
2023/08/25 09:25:32;;;;;;;8.88;3.65;;;;;;;33.99;34.64;92686.94;2068619;69;20221;-84
2023/08/25 09:28:03;;;;;;;14.43;3.88;;;;;;;34.37;33.47;92687.34;2068781;69;20664;-85
2023/08/25 09:30:34;;;;;;;15.83;3.87;;;;;;;33.16;34.11;92678.13;2065207;69;20249;-83
2023/08/25 09:33:05;;;;;;;14.55;3.90;;;;;;;32.85;34.99;92669.38;2068806;69;20157;-85
2023/08/25 09:35:32;;;;;;;13.63;4.03;;;;;;;33.07;34.88;92660.13;2067987;69;20140;-85
2023/08/25 09:41:46;;;;;;;10.20;3.65;;;;;;;33.70;35.57;92657.09;2068688;69;20199;-85
2023/08/25 09:44:12;;;;;;;14.73;4.38;;;;;;;33.37;35.08;92640.41;2068845;69;20632;-86
2023/08/25 09:46:38;;;;;;;14.45;3.70;;;;;;;34.42;34.43;92644.13;2068624;69;20567;-85
2023/08/25 09:49:11;;;;;;;11.75;3.97;;;;;;;34.32;33.91;92637.09;2068397;69;20673;-86
2023/08/25 09:51:44;;;;;;;9.45;4.03;;;;;;;34.21;33.55;92641.78;2068280;69;20588;-85
2023/08/25 09:54:12;;;;;;;13.95;3.90;;;;;;;35.09;33.29;92636.91;2068713;69;20219;-84
2023/08/25 09:56:45;;;;;;;11.15;3.92;;;;;;;35.21;32.79;92632.88;2068717;69;20161;-85
2023/08/25 09:59:13;;;;;;;10.27;3.88;;;;;;;34.67;32.68;92626.56;2065683;69;20145;-86
2023/08/25 10:01:43;;;;;;;10.18;3.65;;;;;;;35.21;32.88;92621.16;2068736;69;20144;-85
2023/08/25 10:04:13;;;;;;;9.38;3.80;;;;;;;34.90;33.19;92627.97;2068680;69;20314;-86
2023/08/25 10:06:41;;;;;;;12.90;3.83;;;;;;;36.01;31.92;92627.91;2068692;69;20149;-85
2023/08/25 10:09:07;;;;;;;10.77;3.70;;;;;;;34.00;33.63;92623.44;2068747;69;20144;-84
2023/08/25 10:11:42;;;;;;;13.90;3.85;;;;;;;34.25;33.21;92627.06;2068262;69;20153;-83
2023/08/25 10:14:10;;;;;;;15.32;4.00;;;;;;;35.13;33.75;92622.13;2065142;69;20237;-83
2023/08/25 10:16:52;;;;;;;15.30;3.90;;;;;;;35.60;31.52;92619.84;2065328;69;20148;-83
2023/08/25 10:19:27;;;;;;;10.15;3.95;;;;;;;33.72;34.02;92616.88;2065371;69;20585;-83
2023/08/25 10:21:55;;;;;;;11.93;4.03;;;;;;;34.71;32.88;92614.75;2065316;69;20179;-85
2023/08/25 10:24:25;;;;;;;12.23;3.88;;;;;;;34.84;33.39;92625.25;2065544;69;20151;-83
2023/08/25 10:26:53;;;;;;;9.68;3.58;;;;;;;36.42;33.04;92625.69;2065195;69;20559;-82
2023/08/25 10:29:22;;;;;;;8.90;3.78;;;;;;;36.23;32.23;92613.94;2068727;69;20226;-83
2023/08/25 10:31:51;;;;;;;10.60;3.83;;;;;;;37.18;30.96;92618.31;2068360;69;20172;-83
2023/08/25 10:34:38;;;;;;;13.35;4.28;;;;;;;35.56;31.13;92617.09;2068301;69;20559;-84
2023/08/25 10:37:11;;;;;;;10.32;4.10;;;;;;;34.54;32.79;92614.53;2068735;69;20141;-83
2023/08/25 10:39:48;;;;;;;14.27;3.88;;;;;;;34.57;33.16;92610.75;2068616;69;20148;-84
2023/08/25 10:42:38;;;;;;;10.57;4.35;;;;;;;36.98;31.42;92599.31;2068303;69;20237;-85
2023/08/25 10:45:11;;;;;;;12.13;3.60;;;;;;;37.57;29.63;92593.94;2068741;69;20148;-82
2023/08/25 10:47:45;;;;;;;11.70;4.05;;;;;;;35.97;30.35;92578.28;2068733;69;20607;-82
2023/08/25 10:50:11;;;;;;;12.13;4.10;;;;;;;37.58;28.27;92577.72;2068617;69;20694;-85
2023/08/25 10:52:46;;;;;;;10.48;4.00;;;;;;;39.45;27.72;92573.44;2068585;69;20168;-83
2023/08/25 10:55:32;;;;;;;16.83;4.10;;;;;;;40.34;26.55;92558.50;2068107;69;20145;-83
2023/08/25 10:58:06;;;;;;;13.65;4.03;;;;;;;41.57;25.81;92550.03;2065599;69;20175;-86
2023/08/25 11:00:43;;;;;;;11.52;4.18;;;;;;;40.81;25.78;92550.72;2068550;69;20198;-84
2023/08/25 11:03:08;;;;;;;10.63;3.70;;;;;;;43.34;24.13;92549.34;2068571;69;20140;-82
2023/08/25 11:05:38;;;;;;;17.15;3.88;;;;;;;42.12;25.38;92540.81;2068577;69;20132;-83
2023/08/25 11:08:11;;;;;;;11.65;3.80;;;;;;;41.71;25.77;92541.88;2068520;69;20140;-85
2023/08/25 11:10:36;;;;;;;12.18;3.67;;;;;;;44.27;22.95;92553.44;2068427;69;20636;-83
2023/08/25 11:13:07;;;;;;;12.90;3.97;;;;;;;42.17;23.41;92537.59;2068542;69;20176;-82
2023/08/25 11:15:38;;;;;;;13.30;3.97;;;;;;;42.37;23.83;92536.34;2068699;69;20601;-83
2023/08/25 11:18:04;;;;;;;10.80;3.58;;;;;;;43.45;22.19;92534.59;2065040;69;20149;-84
2023/08/25 11:20:30;;;;;;;11.15;3.50;;;;;;;43.03;22.24;92530.66;2065190;69;20233;-84
2023/08/25 11:23:00;;;;;;;8.45;3.40;;;;;;;43.44;22.95;92536.13;2062381;69;20659;-85
2023/08/25 11:25:27;;;;;;;8.88;3.33;;;;;;;45.45;20.92;92556.06;2065057;69;20137;-83
2023/08/25 11:27:54;;;;;;;8.07;3.50;;;;;;;44.12;21.60;92551.44;2065211;69;20240;-83
2023/08/25 11:30:21;;;;;;;10.52;3.45;;;;;;;40.54;24.72;92524.94;2068499;69;20194;-83
2023/08/25 11:32:47;;;;;;;12.65;3.40;;;;;;;38.95;27.54;92524.41;2068444;69;20248;-83
2023/08/25 11:35:13;;;;;;;8.63;3.10;;;;;;;40.11;25.51;92542.03;2068422;69;20599;-82
2023/08/25 11:37:41;;;;;;;15.38;3.30;;;;;;;37.31;29.55;92542.91;2068387;69;20164;-83
2023/08/25 11:40:13;;;;;;;13.80;3.42;;;;;;;36.63;29.49;92562.56;2068383;69;20182;-82
2023/08/25 11:46:26;;;;;;;12.40;3.72;;;;;;;36.58;30.25;92581.13;2068561;69;20116;-83
2023/08/25 11:48:54;;;;;;;9.65;3.38;;;;;;;36.37;29.86;92572.38;2067934;69;20149;-82
2023/08/25 11:51:21;;;;;;;9.60;3.33;;;;;;;35.66;30.39;92572.09;2068541;69;20151;-83
2023/08/25 11:53:47;;;;;;;7.18;3.63;;;;;;;35.14;32.56;92568.00;2067899;69;20225;-82
2023/08/25 11:56:15;;;;;;;7.78;3.60;;;;;;;35.14;31.29;92570.19;2067901;69;20196;-82
2023/08/25 11:58:45;;;;;;;9.77;3.58;;;;;;;34.12;32.90;92558.81;2068390;69;20152;-81
2023/08/25 12:01:12;;;;;;;14.60;3.95;;;;;;;33.55;36.17;92569.94;2068474;69;20148;-83
2023/08/25 12:03:44;;;;;;;11.63;4.03;;;;;;;33.20;35.22;92564.28;2068368;69;20132;-79
2023/08/25 12:06:27;;;;;;;10.38;3.72;;;;;;;33.66;35.41;92566.72;2068090;69;20157;-79
2023/08/25 12:08:53;;;;;;;12.65;3.95;;;;;;;33.19;36.74;92565.06;2068367;69;20145;-81
2023/08/25 12:11:20;;;;;;;8.45;4.00;;;;;;;33.17;36.58;92565.09;2068206;69;20171;-82
2023/08/25 12:13:47;;;;;;;14.13;4.05;;;;;;;32.81;37.63;92565.28;2068850;69;20129;-83
2023/08/25 12:20:11;;;;;;;15.88;4.60;;;;;;;32.34;42.99;92594.78;2071616;69;20245;-83